createdAt,value
2019-01-14T00:00:20.901Z,99846.20
2019-01-14T00:02:49.271Z,99843.23
2019-01-14T00:05:17.655Z,99851.38
2019-01-14T00:07:46.023Z,99845.81
2019-01-14T00:10:15.196Z,99843.23
2019-01-14T00:12:43.571Z,99847.54
2019-01-14T00:15:12.258Z,99840.65
2019-01-14T00:17:40.863Z,99847.92
2019-01-14T00:20:12.143Z,99841.50
2019-01-14T00:22:40.516Z,99850.13
2019-01-14T00:25:09.154Z,99846.62
2019-01-14T00:27:37.519Z,99859.13
2019-01-14T00:30:09.024Z,99862.56
2019-01-14T00:32:37.389Z,99871.16
2019-01-14T00:35:07.347Z,99867.77
2019-01-14T00:37:35.727Z,99868.61
2019-01-14T00:40:06.273Z,99878.48
2019-01-14T00:42:34.809Z,99874.19
2019-01-14T00:45:03.433Z,99879.36
2019-01-14T00:47:31.825Z,99878.93
2019-01-14T00:50:00.207Z,99876.33
2019-01-14T00:52:28.855Z,99882.33
2019-01-14T00:54:57.222Z,99879.31
2019-01-14T00:57:25.616Z,99888.38
2019-01-14T00:59:54.075Z,99888.80
2019-01-14T01:02:22.436Z,99893.97
2019-01-14T01:04:50.810Z,99893.95
2019-01-14T01:07:19.186Z,99895.70
2019-01-14T01:09:47.559Z,99906.02
2019-01-14T01:12:15.946Z,99910.31
2019-01-14T01:14:44.321Z,99910.31
2019-01-14T01:17:12.703Z,99915.49
2019-01-14T01:19:41.082Z,99929.27
2019-01-14T01:22:09.457Z,99925.39
2019-01-14T01:24:37.837Z,99928.85
2019-01-14T01:27:06.205Z,99957.70
2019-01-14T01:29:34.819Z,99964.89
2019-01-14T01:32:03.204Z,99974.59
2019-01-14T01:34:31.566Z,99981.38
2019-01-14T01:36:59.936Z,99981.23
2019-01-14T01:39:28.316Z,99985.16
2019-01-14T01:41:56.729Z,99980.50
2019-01-14T01:44:25.068Z,99975.39
2019-01-14T01:46:53.430Z,99976.34
2019-01-14T01:49:21.810Z,99978.19
2019-01-14T01:51:50.191Z,99984.12
2019-01-14T01:54:18.568Z,99988.04
2019-01-14T01:56:46.945Z,99991.91
2019-01-14T01:59:15.352Z,99994.99
2019-01-14T02:01:43.725Z,99981.65
2019-01-14T02:04:12.098Z,99980.80
2019-01-14T02:06:40.479Z,99982.98
2019-01-14T02:09:08.961Z,99992.45
2019-01-14T02:11:37.391Z,100001.06
2019-01-14T02:14:05.834Z,100006.68
2019-01-14T02:16:34.595Z,100009.23
2019-01-14T02:19:03.048Z,100008.00
2019-01-14T02:21:31.437Z,99994.70
2019-01-14T02:23:59.809Z,100007.60
2019-01-14T02:26:28.209Z,100006.28
2019-01-14T02:28:56.580Z,100008.44
2019-01-14T02:31:24.967Z,100011.03
2019-01-14T02:33:53.421Z,100005.02
2019-01-14T02:36:21.805Z,100014.89
2019-01-14T02:38:50.169Z,100017.52
2019-01-14T02:41:18.555Z,100028.22
2019-01-14T02:43:46.932Z,100021.77
2019-01-14T02:46:15.310Z,100018.35
2019-01-14T02:48:43.687Z,100027.81
2019-01-14T02:51:12.074Z,100027.80
2019-01-14T02:53:40.702Z,100037.29
2019-01-14T02:56:09.087Z,100029.55
2019-01-14T02:58:37.471Z,100031.69
2019-01-14T03:01:05.849Z,100040.28
2019-01-14T03:03:34.233Z,100035.09
2019-01-14T03:06:02.617Z,100047.60
2019-01-14T03:08:31.004Z,100052.30
2019-01-14T03:10:59.366Z,100051.00
2019-01-14T03:13:27.749Z,100048.36
2019-01-14T03:15:56.135Z,100047.08
2019-01-14T03:18:24.532Z,100053.12
2019-01-14T03:20:52.922Z,100057.45
2019-01-14T03:23:21.309Z,100054.87
2019-01-14T03:25:58.097Z,100053.59
2019-01-14T03:28:20.044Z,100051.85
2019-01-14T03:30:48.411Z,100052.77
2019-01-14T03:33:16.805Z,100057.92
2019-01-14T03:35:45.167Z,100052.70
2019-01-14T03:38:13.542Z,100047.98
2019-01-14T03:40:41.926Z,100053.59
2019-01-14T03:43:10.319Z,100063.08
2019-01-14T03:45:40.910Z,100051.05
2019-01-14T03:48:09.364Z,100067.41
2019-01-14T03:50:37.761Z,100072.13
2019-01-14T03:53:06.137Z,100081.60
2019-01-14T03:55:34.519Z,100082.45
2019-01-14T03:58:02.967Z,100082.44
2019-01-14T04:00:31.368Z,100091.45
2019-01-14T04:02:59.981Z,100092.70
2019-01-14T04:05:28.367Z,100099.58
2019-01-14T04:07:56.744Z,100094.37
2019-01-14T04:10:27.295Z,100098.30
2019-01-14T04:12:55.667Z,100097.04
2019-01-14T04:15:24.124Z,100095.73
2019-01-14T04:17:54.771Z,100092.27
2019-01-14T04:20:23.151Z,100103.50
2019-01-14T04:22:51.529Z,100102.19
2019-01-14T04:25:19.902Z,100107.28
2019-01-14T04:27:48.354Z,100103.02
2019-01-14T04:30:22.279Z,100112.91
2019-01-14T04:32:50.883Z,100113.30
2019-01-14T04:35:20.026Z,100115.02
2019-01-14T04:37:48.579Z,100123.22
2019-01-14T04:40:17.058Z,100123.66
2019-01-14T04:42:45.485Z,100124.52
2019-01-14T04:45:16.444Z,100124.53
2019-01-14T04:47:44.958Z,100133.11
2019-01-14T04:50:16.047Z,100134.04
2019-01-14T04:52:44.437Z,100133.48
2019-01-14T04:55:13.081Z,100133.91
2019-01-14T04:57:41.453Z,100139.94
2019-01-14T05:00:15.773Z,100147.27
2019-01-14T05:02:44.140Z,100143.33
2019-01-14T05:05:12.901Z,100148.08
2019-01-14T05:07:41.274Z,100157.03
2019-01-14T05:10:15.151Z,100160.95
2019-01-14T05:12:43.533Z,100152.75
2019-01-14T05:15:12.651Z,100162.18
2019-01-14T05:17:41.012Z,100161.37
2019-01-14T05:20:25.935Z,100164.89
2019-01-14T05:22:55.237Z,100166.53
2019-01-14T05:25:23.685Z,100175.08
2019-01-14T05:27:52.114Z,100181.12
2019-01-14T05:30:20.953Z,100192.31
2019-01-14T05:32:49.427Z,100194.09
2019-01-14T05:35:17.932Z,100187.23
2019-01-14T05:37:46.477Z,100200.48
2019-01-14T05:40:17.097Z,100200.38
2019-01-14T05:42:45.479Z,100205.24
2019-01-14T05:45:13.936Z,100213.77
2019-01-14T05:47:42.309Z,100217.23
2019-01-14T05:50:15.206Z,100217.66
2019-01-14T05:52:44.031Z,100224.93
2019-01-14T05:55:13.845Z,100228.41
2019-01-14T05:57:42.313Z,100225.75
2019-01-14T06:00:19.384Z,100227.91
2019-01-14T06:02:47.903Z,100222.35
2019-01-14T06:05:16.281Z,100222.00
2019-01-14T06:07:45.157Z,100221.48
2019-01-14T06:10:13.608Z,100226.19
2019-01-14T06:12:41.991Z,100239.56
2019-01-14T06:15:15.671Z,100236.64
2019-01-14T06:17:44.049Z,100240.87
2019-01-14T06:20:15.341Z,100241.84
2019-01-14T06:22:43.719Z,100251.67
2019-01-14T06:25:14.133Z,100262.84
2019-01-14T06:27:42.517Z,100262.05
2019-01-14T06:30:16.609Z,100270.70
2019-01-14T06:32:44.999Z,100268.11
2019-01-14T06:35:13.517Z,100274.59
2019-01-14T06:37:41.888Z,100261.28
2019-01-14T06:40:16.161Z,100267.63
2019-01-14T06:42:44.619Z,100272.89
2019-01-14T06:45:13.714Z,100275.88
2019-01-14T06:47:42.168Z,100276.30
2019-01-14T06:50:13.365Z,100277.18
2019-01-14T06:52:41.749Z,100282.83
2019-01-14T06:55:10.585Z,100284.02
2019-01-14T06:57:38.951Z,100279.33
2019-01-14T07:00:10.763Z,100282.33
2019-01-14T07:02:39.135Z,100295.66
2019-01-14T07:05:10.328Z,100308.55
2019-01-14T07:07:38.692Z,100314.88
2019-01-14T07:10:10.130Z,100314.49
2019-01-14T07:12:38.493Z,100329.45
2019-01-14T07:15:08.939Z,100324.61
2019-01-14T07:17:38.208Z,100332.30
2019-01-14T07:20:10.170Z,100339.19
2019-01-14T07:22:38.562Z,100351.90
2019-01-14T07:25:09.486Z,100357.41
2019-01-14T07:27:37.859Z,100353.95
2019-01-14T07:30:09.680Z,100358.22
2019-01-14T07:32:39.040Z,100365.25
2019-01-14T07:35:07.677Z,100366.80
2019-01-14T07:37:36.052Z,100367.61
2019-01-14T07:40:07.479Z,100361.33
2019-01-14T07:42:35.921Z,100367.27
2019-01-14T07:45:05.335Z,100367.69
2019-01-14T07:47:33.716Z,100363.01
2019-01-14T07:50:02.092Z,100377.14
2019-01-14T07:52:30.476Z,100375.41
2019-01-14T07:54:58.861Z,100374.98
2019-01-14T07:57:27.250Z,100381.06
2019-01-14T07:59:55.616Z,100384.09
2019-01-14T08:02:24.005Z,100381.91
2019-01-14T08:04:52.378Z,100390.02
2019-01-14T08:07:21.679Z,100399.87
2019-01-14T08:09:50.057Z,100405.88
2019-01-14T08:12:19.359Z,100408.51
2019-01-14T08:14:48.650Z,100410.46
2019-01-14T08:17:17.021Z,100422.39
2019-01-14T08:19:45.451Z,100427.49
2019-01-14T08:22:14.808Z,100427.47
2019-01-14T08:24:43.206Z,100436.88
2019-01-14T08:27:12.512Z,100429.83
2019-01-14T08:29:40.871Z,100439.63
2019-01-14T08:32:09.255Z,100443.63
2019-01-14T08:34:37.630Z,100444.23
2019-01-14T08:37:06.014Z,100457.09
2019-01-14T08:39:34.404Z,100449.39
2019-01-14T08:42:03.056Z,100451.91
2019-01-14T08:44:33.081Z,100459.45
2019-01-14T08:47:01.454Z,100455.80
2019-01-14T08:49:29.846Z,100457.29
2019-01-14T08:51:58.478Z,100472.24
2019-01-14T08:54:26.882Z,100475.92
2019-01-14T08:56:55.286Z,100474.92
2019-01-14T08:59:25.638Z,100485.20
2019-01-14T09:01:54.036Z,100486.34
2019-01-14T09:04:24.495Z,100489.88
2019-01-14T09:06:53.048Z,100499.55
2019-01-14T09:09:21.449Z,100505.53
2019-01-14T09:11:49.830Z,100509.62
2019-01-14T09:14:18.215Z,100512.83
2019-01-14T09:16:46.603Z,100524.75
2019-01-14T09:19:15.045Z,100538.37
2019-01-14T09:21:43.435Z,100528.61
2019-01-14T09:24:12.785Z,100549.88
2019-01-14T09:26:41.172Z,100563.84
2019-01-14T09:29:10.480Z,100577.00
2019-01-14T09:31:39.024Z,100575.87
2019-01-14T09:34:07.876Z,100594.30
2019-01-14T09:36:36.483Z,100612.09
2019-01-14T09:39:07.744Z,100624.59
2019-01-14T09:41:36.116Z,100627.00
2019-01-14T09:44:04.726Z,100632.38
2019-01-14T09:46:33.102Z,100629.28
2019-01-14T09:49:01.483Z,100618.70
2019-01-14T09:51:29.866Z,100624.08
2019-01-14T09:53:58.232Z,100621.75
2019-01-14T09:56:26.601Z,100614.02
2019-01-14T09:58:55.040Z,100620.20
2019-01-14T10:01:23.418Z,100624.99
2019-01-14T10:03:51.782Z,100625.14
2019-01-14T10:06:20.162Z,100621.85
2019-01-14T10:08:48.529Z,100628.81
2019-01-14T10:11:16.982Z,100624.55
2019-01-14T10:13:45.444Z,100629.20
2019-01-14T10:16:13.817Z,100632.34
2019-01-14T10:18:42.188Z,100635.97
2019-01-14T10:21:10.568Z,100629.17
2019-01-14T10:23:38.934Z,100636.17
2019-01-14T10:26:08.932Z,100637.22
2019-01-14T10:28:37.295Z,100652.67
2019-01-14T10:31:05.746Z,100649.18
2019-01-14T10:33:34.108Z,100654.37
2019-01-14T10:36:02.506Z,100654.55
2019-01-14T10:38:30.880Z,100659.73
2019-01-14T10:40:59.250Z,100660.78
2019-01-14T10:43:27.629Z,100668.94
2019-01-14T10:45:56.282Z,100667.86
2019-01-14T10:48:24.612Z,100674.87
2019-01-14T10:50:53.034Z,100676.38
2019-01-14T10:53:21.402Z,100675.23
2019-01-14T10:55:50.008Z,100678.36
2019-01-14T10:58:18.388Z,100676.20
2019-01-14T11:00:46.764Z,100684.67
2019-01-14T11:03:15.211Z,100692.72
2019-01-14T11:05:43.659Z,100692.62
2019-01-14T11:08:12.030Z,100690.14
2019-01-14T11:10:40.401Z,100696.81
2019-01-14T11:13:12.856Z,100695.23
2019-01-14T11:15:41.228Z,100689.91
2019-01-14T11:18:09.603Z,100699.39
2019-01-14T11:20:37.975Z,100701.37
2019-01-14T11:23:06.357Z,100701.28
2019-01-14T11:25:34.749Z,100707.25
2019-01-14T11:28:04.841Z,100707.03
2019-01-14T11:30:33.561Z,100708.26
2019-01-14T11:33:01.923Z,100713.24
2019-01-14T11:35:30.371Z,100718.09
2019-01-14T11:37:59.030Z,100718.82
2019-01-14T11:40:31.912Z,100719.23
2019-01-14T11:43:00.228Z,100720.98
2019-01-14T11:45:28.611Z,100715.95
2019-01-14T11:47:56.987Z,100713.58
2019-01-14T11:50:25.358Z,100708.30
2019-01-14T11:52:53.728Z,100710.58
2019-01-14T11:55:22.108Z,100713.99
2019-01-14T11:57:50.550Z,100716.70
2019-01-14T12:00:25.482Z,100722.02
2019-01-14T12:02:55.909Z,100754.00
2019-01-14T12:05:24.438Z,100795.08
2019-01-14T12:07:52.857Z,100803.84
2019-01-14T12:10:21.217Z,100804.56
2019-01-14T12:12:49.597Z,100796.70
2019-01-14T12:15:20.855Z,100788.30
2019-01-14T12:17:49.249Z,100787.77
2019-01-14T12:20:17.683Z,100781.03
2019-01-14T12:22:46.204Z,100786.52
2019-01-14T12:25:14.674Z,100778.03
2019-01-14T12:27:44.118Z,100765.00
2019-01-14T12:30:19.938Z,100754.08
2019-01-14T12:32:48.439Z,100756.53
2019-01-14T12:35:16.837Z,100778.23
2019-01-14T12:37:45.189Z,100781.28
2019-01-14T12:40:14.290Z,100792.11
2019-01-14T12:42:42.731Z,100790.91
2019-01-14T12:45:16.793Z,100797.96
2019-01-14T12:47:45.160Z,100795.58
2019-01-14T12:50:19.448Z,100795.14
2019-01-14T12:52:48.679Z,100795.70
2019-01-14T12:55:18.905Z,100799.22
2019-01-14T12:57:47.412Z,100789.69
2019-01-14T13:00:29.538Z,100798.21
2019-01-14T13:02:58.768Z,100801.79
2019-01-14T13:05:28.056Z,100806.74
2019-01-14T13:07:56.428Z,100820.23
2019-01-14T13:10:24.804Z,100814.73
2019-01-14T13:12:53.188Z,100819.01
2019-01-14T13:15:23.387Z,100810.72
2019-01-14T13:17:51.761Z,100817.48
2019-01-14T13:20:21.379Z,100819.89
2019-01-14T13:22:49.927Z,100827.00
2019-01-14T13:25:18.547Z,100817.30
2019-01-14T13:27:46.938Z,100821.74
2019-01-14T13:30:26.393Z,100820.97
2019-01-14T13:32:55.718Z,100827.61
2019-01-14T13:35:24.219Z,100820.92
2019-01-14T13:37:52.727Z,100817.42
2019-01-14T13:40:21.076Z,100815.70
2019-01-14T13:42:49.535Z,100811.43
2019-01-14T13:45:19.949Z,100814.61
2019-01-14T13:47:48.554Z,100811.98
2019-01-14T13:50:19.507Z,100802.23
2019-01-14T13:52:48.005Z,100803.28
2019-01-14T13:55:17.661Z,100804.86
2019-01-14T13:57:48.300Z,100814.73
2019-01-14T14:00:22.668Z,100820.73
2019-01-14T14:02:51.338Z,100822.08
2019-01-14T14:05:20.022Z,100818.35
2019-01-14T14:07:48.680Z,100826.87
2019-01-14T14:10:29.709Z,100837.09
2019-01-14T14:12:58.290Z,100843.72
2019-01-14T14:15:26.819Z,100850.22
2019-01-14T14:17:56.613Z,100870.11
2019-01-14T14:20:26.157Z,100932.14
2019-01-14T14:22:54.525Z,100953.66
2019-01-14T14:25:24.907Z,100955.63
2019-01-14T14:27:53.299Z,100959.41
2019-01-14T14:30:27.723Z,100954.41
2019-01-14T14:32:56.102Z,100960.45
2019-01-14T14:35:24.545Z,100958.87
2019-01-14T14:37:52.942Z,100957.81
2019-01-14T14:40:21.390Z,100962.00
2019-01-14T14:42:49.763Z,100963.66
2019-01-14T14:45:18.267Z,100969.97
2019-01-14T14:47:46.647Z,100960.14
2019-01-14T14:50:19.560Z,100959.44
2019-01-14T14:52:48.172Z,100971.17
2019-01-14T14:55:16.541Z,100979.52
2019-01-14T14:57:45.017Z,100985.32
2019-01-14T15:00:22.207Z,100983.78
2019-01-14T15:02:50.645Z,100987.24
2019-01-14T15:05:19.466Z,100986.73
2019-01-14T15:07:47.936Z,100994.28
2019-01-14T15:10:20.766Z,101003.91
2019-01-14T15:12:49.216Z,100999.06
2019-01-14T15:15:20.250Z,101010.59
2019-01-14T15:17:48.635Z,101017.32
2019-01-14T15:20:19.382Z,101015.38
2019-01-14T15:22:48.711Z,101025.36
2019-01-14T15:25:17.090Z,101027.27
2019-01-14T15:27:45.458Z,101031.92
2019-01-14T15:30:19.541Z,101025.70
2019-01-14T15:32:47.913Z,101029.50
2019-01-14T15:35:17.288Z,101026.65
2019-01-14T15:37:45.657Z,101032.83
2019-01-14T15:40:16.477Z,101042.83
2019-01-14T15:42:44.925Z,101039.97
2019-01-14T15:45:17.383Z,101047.36
2019-01-14T15:47:45.747Z,101044.73
2019-01-14T15:50:14.322Z,101049.30
2019-01-14T15:52:42.689Z,101060.66
2019-01-14T15:55:16.728Z,101054.86
2019-01-14T15:57:51.584Z,101059.34
2019-01-14T16:00:21.065Z,101065.80
2019-01-14T16:02:56.273Z,101062.55
2019-01-14T16:05:26.644Z,101067.52
2019-01-14T16:07:55.011Z,101069.64
2019-01-14T16:10:31.201Z,101071.47
2019-01-14T16:12:59.562Z,101075.89
2019-01-14T16:15:30.949Z,101076.61
2019-01-14T16:18:00.299Z,101085.64
2019-01-14T16:20:30.685Z,101088.22
2019-01-14T16:23:00.057Z,101077.91
2019-01-14T16:25:28.423Z,101085.81
2019-01-14T16:27:56.799Z,101090.71
2019-01-14T16:30:25.245Z,101095.22
2019-01-14T16:32:53.932Z,101088.14
2019-01-14T16:35:22.311Z,101090.19
2019-01-14T16:37:50.682Z,101100.22
2019-01-14T16:40:19.198Z,101100.16
2019-01-14T16:42:47.576Z,101100.39
2019-01-14T16:45:18.685Z,101109.44
2019-01-14T16:47:47.127Z,101115.59
2019-01-14T16:50:17.222Z,101128.47
2019-01-14T16:52:45.601Z,101129.14
2019-01-14T16:55:15.737Z,101129.77
2019-01-14T16:57:44.109Z,101140.29
2019-01-14T17:00:17.259Z,101142.25
2019-01-14T17:02:45.908Z,101144.17
2019-01-14T17:05:15.515Z,101147.08
2019-01-14T17:07:43.956Z,101153.19
2019-01-14T17:10:14.472Z,101148.83
2019-01-14T17:12:42.916Z,101151.50
2019-01-14T17:15:13.702Z,101161.28
2019-01-14T17:17:42.146Z,101152.45
2019-01-14T17:20:16.238Z,101150.56
2019-01-14T17:22:44.612Z,101156.03
2019-01-14T17:25:13.535Z,101155.02
2019-01-14T17:27:41.912Z,101160.34
2019-01-14T17:30:13.287Z,101162.55
2019-01-14T17:32:41.649Z,101170.05
2019-01-14T17:35:10.167Z,101165.07
2019-01-14T17:37:38.533Z,101172.22
2019-01-14T17:40:09.930Z,101171.23
2019-01-14T17:42:38.299Z,101166.91
2019-01-14T17:45:09.029Z,101167.30
2019-01-14T17:47:37.481Z,101175.29
2019-01-14T17:50:10.933Z,101178.25
2019-01-14T17:52:40.267Z,101177.28
2019-01-14T17:55:09.937Z,101185.98
2019-01-14T17:57:39.293Z,101193.16
2019-01-14T18:00:22.066Z,101194.83
2019-01-14T18:02:51.465Z,101189.03
2019-01-14T18:05:20.885Z,101185.48
2019-01-14T18:07:50.208Z,101194.98
2019-01-14T18:10:19.721Z,101196.72
2019-01-14T18:12:48.525Z,101199.67
2019-01-14T18:15:16.901Z,101204.76
2019-01-14T18:17:45.289Z,101208.77
2019-01-14T18:20:18.105Z,101210.03
2019-01-14T18:22:46.487Z,101222.89
2019-01-14T18:25:15.799Z,101217.12
2019-01-14T18:27:44.261Z,101226.69
2019-01-14T18:30:18.605Z,101231.60
2019-01-14T18:32:47.248Z,101235.94
2019-01-14T18:35:17.056Z,101240.36
2019-01-14T18:37:45.677Z,101239.95
2019-01-14T18:40:16.167Z,101247.89
2019-01-14T18:42:44.656Z,101245.02
2019-01-14T18:45:15.059Z,101241.70
2019-01-14T18:47:43.518Z,101252.97
2019-01-14T18:50:17.932Z,101254.28
2019-01-14T18:52:46.640Z,101251.80
2019-01-14T18:55:15.087Z,101257.86
2019-01-14T18:57:43.558Z,101261.34
2019-01-14T19:00:15.263Z,101258.52
2019-01-14T19:02:44.706Z,101257.23
2019-01-14T19:05:13.154Z,101257.22
2019-01-14T19:07:44.842Z,101268.98
2019-01-14T19:10:13.949Z,101269.21
2019-01-14T19:12:42.339Z,101268.05
2019-01-14T19:15:13.724Z,101270.63
2019-01-14T19:17:42.093Z,101271.03
2019-01-14T19:20:19.736Z,101270.31
2019-01-14T19:22:48.106Z,101278.16
2019-01-14T19:25:16.508Z,101280.59
2019-01-14T19:27:45.782Z,101277.93
2019-01-14T19:30:21.588Z,101274.48
2019-01-14T19:32:49.956Z,101275.67
2019-01-14T19:35:18.474Z,101277.17
2019-01-14T19:37:46.838Z,101281.53
2019-01-14T19:40:17.545Z,101281.34
2019-01-14T19:42:46.022Z,101285.61
2019-01-14T19:45:17.096Z,101290.63
2019-01-14T19:47:45.555Z,101297.34
2019-01-14T19:50:18.803Z,101298.69
2019-01-14T19:52:47.189Z,101288.89
2019-01-14T19:55:15.625Z,101286.92
2019-01-14T19:57:44.083Z,101298.18
2019-01-14T20:00:15.705Z,101300.16
2019-01-14T20:02:44.214Z,101309.20
2019-01-14T20:05:12.650Z,101307.91
2019-01-14T20:07:41.033Z,101309.80
2019-01-14T20:10:12.740Z,101311.92
2019-01-14T20:12:42.890Z,101307.45
2019-01-14T20:15:14.350Z,101307.48
2019-01-14T20:17:42.743Z,101308.97
2019-01-14T20:20:11.460Z,101315.77
2019-01-14T20:22:39.884Z,101313.58
2019-01-14T20:25:11.238Z,101306.94
2019-01-14T20:27:39.768Z,101312.30
2019-01-14T20:30:21.405Z,101320.41
2019-01-14T20:32:49.854Z,101312.55
2019-01-14T20:35:18.294Z,101318.59
2019-01-14T20:37:46.663Z,101319.34
2019-01-14T20:40:16.174Z,101315.72
2019-01-14T20:42:44.609Z,101320.77
2019-01-14T20:45:17.216Z,101320.86
2019-01-14T20:47:46.480Z,101327.56
2019-01-14T20:50:17.828Z,101330.80
2019-01-14T20:52:46.264Z,101331.98
2019-01-14T20:55:14.779Z,101339.05
2019-01-14T20:57:43.338Z,101341.19
2019-01-14T21:00:15.518Z,101349.67
2019-01-14T21:02:43.886Z,101345.14
2019-01-14T21:05:12.412Z,101344.33
2019-01-14T21:07:40.781Z,101351.51
2019-01-14T21:10:12.122Z,101343.28
2019-01-14T21:12:40.496Z,101346.27
2019-01-14T21:15:11.135Z,101353.27
2019-01-14T21:17:39.595Z,101350.19
2019-01-14T21:20:16.864Z,101355.83
2019-01-14T21:22:46.676Z,101352.73
2019-01-14T21:25:15.183Z,101355.39
2019-01-14T21:27:43.563Z,101353.13
2019-01-14T21:30:19.844Z,101353.88
2019-01-14T21:32:48.312Z,101353.33
2019-01-14T21:35:16.758Z,101351.45
2019-01-14T21:37:45.129Z,101349.19
2019-01-14T21:40:14.490Z,101347.91
2019-01-14T21:42:42.848Z,101346.73
2019-01-14T21:45:12.963Z,101345.84
2019-01-14T21:47:41.410Z,101351.86
2019-01-14T21:50:15.050Z,101344.06
2019-01-14T21:52:44.644Z,101346.35
2019-01-14T21:55:17.943Z,101349.41
2019-01-14T21:57:46.573Z,101350.36
2019-01-14T22:00:21.973Z,101361.12
2019-01-14T22:02:50.430Z,101360.88
2019-01-14T22:05:18.965Z,101355.98
2019-01-14T22:07:51.363Z,101359.74
2019-01-14T22:10:22.413Z,101367.78
2019-01-14T22:12:50.796Z,101368.08
2019-01-14T22:15:19.169Z,101372.77
2019-01-14T22:17:47.533Z,101368.94
2019-01-14T22:20:21.648Z,101370.94
2019-01-14T22:22:50.188Z,101372.59
2019-01-14T22:25:18.566Z,101370.11
2019-01-14T22:27:47.000Z,101373.30
2019-01-14T22:30:21.091Z,101373.01
2019-01-14T22:32:49.460Z,101375.47
2019-01-14T22:35:17.835Z,101370.42
2019-01-14T22:37:46.214Z,101372.09
2019-01-14T22:40:15.234Z,101378.56
2019-01-14T22:42:43.608Z,101375.32
2019-01-14T22:45:13.259Z,101380.25
2019-01-14T22:47:41.633Z,101376.25
2019-01-14T22:50:18.199Z,101377.08
2019-01-14T22:52:46.640Z,101384.55
2019-01-14T22:55:15.086Z,101380.46
2019-01-14T22:57:44.497Z,101393.02
2019-01-14T23:00:45.129Z,101393.66
2019-01-14T23:03:14.471Z,101392.83
2019-01-14T23:05:42.861Z,101389.83
2019-01-14T23:08:11.228Z,101389.11
2019-01-14T23:10:39.663Z,101403.05
2019-01-14T23:13:08.056Z,101399.39
2019-01-14T23:15:36.431Z,101404.08
2019-01-14T23:18:05.280Z,101416.84
2019-01-14T23:20:33.659Z,101415.75
2019-01-14T23:23:02.045Z,101426.22
2019-01-14T23:25:30.422Z,101427.80
2019-01-14T23:27:58.797Z,101422.36
2019-01-14T23:30:27.170Z,101424.32
2019-01-14T23:32:55.553Z,101421.45
2019-01-14T23:35:23.926Z,101421.77
2019-01-14T23:37:52.307Z,101428.06
2019-01-14T23:40:20.751Z,101430.52
2019-01-14T23:42:49.112Z,101427.70
2019-01-14T23:45:17.570Z,101435.66
2019-01-14T23:47:45.945Z,101434.33
2019-01-14T23:50:14.398Z,101441.92
2019-01-14T23:52:42.763Z,101440.39
2019-01-14T23:55:11.209Z,101441.17
2019-01-14T23:57:39.570Z,101437.05
